sensor_id;sensor_type;location;lat;lon;timestamp;temperature;humidity
48264;DHT22;34086;51.076;13.722;2022-09-30T00:00:09;9.30;99.90
48264;DHT22;34086;51.076;13.722;2022-09-30T00:01:10;9.30;99.90
48264;DHT22;34086;51.076;13.722;2022-09-30T00:02:10;9.30;99.90
48264;DHT22;34086;51.076;13.722;2022-09-30T00:03:11;9.30;99.90
48264;DHT22;34086;51.076;13.722;2022-09-30T00:04:16;9.30;99.90
48264;DHT22;34086;51.076;13.722;2022-09-30T00:05:17;9.30;99.90
48264;DHT22;34086;51.076;13.722;2022-09-30T00:06:17;9.30;99.90
48264;DHT22;34086;51.076;13.722;2022-09-30T00:07:20;9.30;99.90
48264;DHT22;34086;51.076;13.722;2022-09-30T00:08:20;9.30;99.90
48264;DHT22;34086;51.076;13.722;2022-09-30T00:09:21;9.30;99.90
48264;DHT22;34086;51.076;13.722;2022-09-30T00:10:21;9.30;99.90
48264;DHT22;34086;51.076;13.722;2022-09-30T00:11:27;9.30;99.90
48264;DHT22;34086;51.076;13.722;2022-09-30T00:12:28;9.30;99.90
48264;DHT22;34086;51.076;13.722;2022-09-30T00:13:34;9.30;99.90
48264;DHT22;34086;51.076;13.722;2022-09-30T00:14:35;9.30;99.90
48264;DHT22;34086;51.076;13.722;2022-09-30T00:15:35;9.30;99.90
48264;DHT22;34086;51.076;13.722;2022-09-30T00:16:36;9.30;99.90
48264;DHT22;34086;51.076;13.722;2022-09-30T00:17:37;9.30;99.90
48264;DHT22;34086;51.076;13.722;2022-09-30T00:18:38;9.30;99.90
48264;DHT22;34086;51.076;13.722;2022-09-30T00:19:39;9.30;99.90
48264;DHT22;34086;51.076;13.722;2022-09-30T00:20:39;9.30;99.90
48264;DHT22;34086;51.076;13.722;2022-09-30T00:21:40;9.30;99.90
48264;DHT22;34086;51.076;13.722;2022-09-30T00:22:41;9.30;99.90
48264;DHT22;34086;51.076;13.722;2022-09-30T00:23:42;9.30;99.90
48264;DHT22;34086;51.076;13.722;2022-09-30T00:24:43;9.30;99.90
48264;DHT22;34086;51.076;13.722;2022-09-30T00:25:46;9.20;99.90
48264;DHT22;34086;51.076;13.722;2022-09-30T00:26:47;9.30;99.90
48264;DHT22;34086;51.076;13.722;2022-09-30T00:27:48;9.20;99.90
48264;DHT22;34086;51.076;13.722;2022-09-30T00:28:54;9.20;99.90
48264;DHT22;34086;51.076;13.722;2022-09-30T00:29:55;9.20;99.90
48264;DHT22;34086;51.076;13.722;2022-09-30T00:31:00;9.20;99.90
48264;DHT22;34086;51.076;13.722;2022-09-30T00:32:01;9.20;99.90
48264;DHT22;34086;51.076;13.722;2022-09-30T00:33:01;9.20;99.90
48264;DHT22;34086;51.076;13.722;2022-09-30T00:34:03;9.20;99.90
48264;DHT22;34086;51.076;13.722;2022-09-30T00:35:06;9.10;99.90
48264;DHT22;34086;51.076;13.722;2022-09-30T00:36:07;9.20;99.90
48264;DHT22;34086;51.076;13.722;2022-09-30T00:37:08;9.10;99.90
48264;DHT22;34086;51.076;13.722;2022-09-30T00:38:11;9.10;99.90
48264;DHT22;34086;51.076;13.722;2022-09-30T00:39:14;9.10;99.90
48264;DHT22;34086;51.076;13.722;2022-09-30T00:40:15;9.10;99.90
48264;DHT22;34086;51.076;13.722;2022-09-30T00:41:18;9.20;99.90
48264;DHT22;34086;51.076;13.722;2022-09-30T00:42:19;9.10;99.90
48264;DHT22;34086;51.076;13.722;2022-09-30T00:43:39;9.10;99.90
48264;DHT22;34086;51.076;13.722;2022-09-30T00:44:53;9.10;99.90
48264;DHT22;34086;51.076;13.722;2022-09-30T00:45:56;9.10;99.90
48264;DHT22;34086;51.076;13.722;2022-09-30T00:46:58;9.10;99.90
48264;DHT22;34086;51.076;13.722;2022-09-30T00:49:35;9.10;99.90
48264;DHT22;34086;51.076;13.722;2022-09-30T00:50:44;9.10;99.90
48264;DHT22;34086;51.076;13.722;2022-09-30T00:51:53;9.20;99.90
48264;DHT22;34086;51.076;13.722;2022-09-30T00:53:09;9.10;99.90
48264;DHT22;34086;51.076;13.722;2022-09-30T00:54:18;9.10;99.90
48264;DHT22;34086;51.076;13.722;2022-09-30T00:55:49;9.10;99.90
48264;DHT22;34086;51.076;13.722;2022-09-30T00:57:00;9.10;99.90
48264;DHT22;34086;51.076;13.722;2022-09-30T00:58:05;9.10;99.90
48264;DHT22;34086;51.076;13.722;2022-09-30T00:59:16;9.10;99.90
48264;DHT22;34086;51.076;13.722;2022-09-30T01:00:18;9.00;99.90
48264;DHT22;34086;51.076;13.722;2022-09-30T01:01:20;9.00;99.90
48264;DHT22;34086;51.076;13.722;2022-09-30T01:02:21;9.00;99.90
48264;DHT22;34086;51.076;13.722;2022-09-30T01:03:22;9.00;99.90
48264;DHT22;34086;51.076;13.722;2022-09-30T01:04:25;9.00;99.90
48264;DHT22;34086;51.076;13.722;2022-09-30T01:05:30;9.00;99.90
48264;DHT22;34086;51.076;13.722;2022-09-30T01:06:32;9.00;99.90
48264;DHT22;34086;51.076;13.722;2022-09-30T01:07:34;9.00;99.90
48264;DHT22;34086;51.076;13.722;2022-09-30T01:08:37;9.00;99.90
48264;DHT22;34086;51.076;13.722;2022-09-30T01:09:40;9.00;99.90
48264;DHT22;34086;51.076;13.722;2022-09-30T01:10:42;9.00;99.90
48264;DHT22;34086;51.076;13.722;2022-09-30T01:11:42;9.00;99.90
48264;DHT22;34086;51.076;13.722;2022-09-30T01:12:43;9.00;99.90
48264;DHT22;34086;51.076;13.722;2022-09-30T01:13:48;9.00;99.90
48264;DHT22;34086;51.076;13.722;2022-09-30T01:14:51;9.00;99.90
48264;DHT22;34086;51.076;13.722;2022-09-30T01:17:24;9.00;99.90
48264;DHT22;34086;51.076;13.722;2022-09-30T01:18:48;9.00;99.90
48264;DHT22;34086;51.076;13.722;2022-09-30T01:28:47;8.90;99.90
48264;DHT22;34086;51.076;13.722;2022-09-30T01:30:05;8.90;99.90
48264;DHT22;34086;51.076;13.722;2022-09-30T01:32:59;8.90;99.90
48264;DHT22;34086;51.076;13.722;2022-09-30T01:34:23;9.00;99.90
48264;DHT22;34086;51.076;13.722;2022-09-30T01:39:08;9.00;99.90
48264;DHT22;34086;51.076;13.722;2022-09-30T01:40:47;9.00;99.90
48264;DHT22;34086;51.076;13.722;2022-09-30T01:42:27;9.00;99.90
48264;DHT22;34086;51.076;13.722;2022-09-30T01:44:12;9.00;99.90
48264;DHT22;34086;51.076;13.722;2022-09-30T01:46:38;9.00;99.90
48264;DHT22;34086;51.076;13.722;2022-09-30T01:48:07;9.00;99.90
48264;DHT22;34086;51.076;13.722;2022-09-30T01:50:28;9.00;99.90
48264;DHT22;34086;51.076;13.722;2022-09-30T01:56:38;8.90;99.90
48264;DHT22;34086;51.076;13.722;2022-09-30T02:00:00;9.00;99.90
48264;DHT22;34086;51.076;13.722;2022-09-30T02:01:16;8.90;99.90
48264;DHT22;34086;51.076;13.722;2022-09-30T02:02:27;8.90;99.90
48264;DHT22;34086;51.076;13.722;2022-09-30T02:03:44;8.90;99.90
48264;DHT22;34086;51.076;13.722;2022-09-30T02:04:54;8.90;99.90
48264;DHT22;34086;51.076;13.722;2022-09-30T02:06:07;8.90;99.90
48264;DHT22;34086;51.076;13.722;2022-09-30T02:07:14;8.90;99.90
48264;DHT22;34086;51.076;13.722;2022-09-30T02:09:05;8.90;99.90
48264;DHT22;34086;51.076;13.722;2022-09-30T02:10:02;8.90;99.90
48264;DHT22;34086;51.076;13.722;2022-09-30T02:11:15;8.90;99.90
48264;DHT22;34086;51.076;13.722;2022-09-30T02:12:20;8.90;99.90
48264;DHT22;34086;51.076;13.722;2022-09-30T02:14:56;8.90;99.90
48264;DHT22;34086;51.076;13.722;2022-09-30T02:16:01;8.90;99.90
48264;DHT22;34086;51.076;13.722;2022-09-30T02:17:51;8.90;99.90
48264;DHT22;34086;51.076;13.722;2022-09-30T02:19:05;8.90;99.90
48264;DHT22;34086;51.076;13.722;2022-09-30T02:20:12;8.90;99.90
48264;DHT22;34086;51.076;13.722;2022-09-30T02:21:22;8.90;99.90
48264;DHT22;34086;51.076;13.722;2022-09-30T02:22:33;8.80;99.90
48264;DHT22;34086;51.076;13.722;2022-09-30T02:23:41;8.90;99.90
48264;DHT22;34086;51.076;13.722;2022-09-30T02:24:45;8.80;99.90
48264;DHT22;34086;51.076;13.722;2022-09-30T02:25:50;8.80;99.90
48264;DHT22;34086;51.076;13.722;2022-09-30T02:26:56;8.80;99.90
48264;DHT22;34086;51.076;13.722;2022-09-30T02:28:02;8.80;99.90
48264;DHT22;34086;51.076;13.722;2022-09-30T02:29:11;8.80;99.90
48264;DHT22;34086;51.076;13.722;2022-09-30T02:30:15;8.80;99.90
48264;DHT22;34086;51.076;13.722;2022-09-30T02:31:16;8.80;99.90
48264;DHT22;34086;51.076;13.722;2022-09-30T02:32:23;8.80;99.90
48264;DHT22;34086;51.076;13.722;2022-09-30T02:34:43;8.80;99.90
48264;DHT22;34086;51.076;13.722;2022-09-30T02:35:53;8.80;99.90
48264;DHT22;34086;51.076;13.722;2022-09-30T02:37:07;8.80;99.90
48264;DHT22;34086;51.076;13.722;2022-09-30T02:38:15;8.80;99.90
48264;DHT22;34086;51.076;13.722;2022-09-30T02:39:30;8.80;99.90
48264;DHT22;34086;51.076;13.722;2022-09-30T02:40:47;8.80;99.90
48264;DHT22;34086;51.076;13.722;2022-09-30T02:41:54;8.80;99.90
48264;DHT22;34086;51.076;13.722;2022-09-30T02:42:58;8.80;99.90
48264;DHT22;34086;51.076;13.722;2022-09-30T02:43:59;8.80;99.90
48264;DHT22;34086;51.076;13.722;2022-09-30T02:45:05;8.80;99.90
48264;DHT22;34086;51.076;13.722;2022-09-30T02:47:30;8.80;99.90
48264;DHT22;34086;51.076;13.722;2022-09-30T02:53:51;8.80;99.90
48264;DHT22;34086;51.076;13.722;2022-09-30T02:55:14;8.80;99.90
48264;DHT22;34086;51.076;13.722;2022-09-30T02:56:34;8.80;99.90
48264;DHT22;34086;51.076;13.722;2022-09-30T02:57:53;8.80;99.90
48264;DHT22;34086;51.076;13.722;2022-09-30T02:58:56;8.80;99.90
48264;DHT22;34086;51.076;13.722;2022-09-30T02:59:57;8.80;99.90
48264;DHT22;34086;51.076;13.722;2022-09-30T03:00:58;8.80;99.90
48264;DHT22;34086;51.076;13.722;2022-09-30T03:01:58;8.80;99.90
48264;DHT22;34086;51.076;13.722;2022-09-30T03:03:11;8.80;99.90
48264;DHT22;34086;51.076;13.722;2022-09-30T03:04:23;8.80;99.90
48264;DHT22;34086;51.076;13.722;2022-09-30T03:05:26;8.80;99.90
48264;DHT22;34086;51.076;13.722;2022-09-30T03:06:28;8.80;99.90
48264;DHT22;34086;51.076;13.722;2022-09-30T03:07:29;8.80;99.90
48264;DHT22;34086;51.076;13.722;2022-09-30T03:08:29;8.80;99.90
48264;DHT22;34086;51.076;13.722;2022-09-30T03:09:30;8.80;99.90
48264;DHT22;34086;51.076;13.722;2022-09-30T03:10:32;8.80;99.90
48264;DHT22;34086;51.076;13.722;2022-09-30T03:11:33;8.80;99.90
48264;DHT22;34086;51.076;13.722;2022-09-30T03:15:06;8.80;99.90
48264;DHT22;34086;51.076;13.722;2022-09-30T03:21:56;8.70;99.90
48264;DHT22;34086;51.076;13.722;2022-09-30T03:23:24;8.70;99.90
48264;DHT22;34086;51.076;13.722;2022-09-30T03:30:18;8.60;99.90
48264;DHT22;34086;51.076;13.722;2022-09-30T03:31:49;8.60;99.90
48264;DHT22;34086;51.076;13.722;2022-09-30T03:33:30;8.60;99.90
48264;DHT22;34086;51.076;13.722;2022-09-30T03:35:08;8.70;99.90
48264;DHT22;34086;51.076;13.722;2022-09-30T03:36:26;8.70;99.90
48264;DHT22;34086;51.076;13.722;2022-09-30T03:40:07;8.70;99.90
48264;DHT22;34086;51.076;13.722;2022-09-30T03:41:21;8.70;99.90
48264;DHT22;34086;51.076;13.722;2022-09-30T03:42:28;8.70;99.90
48264;DHT22;34086;51.076;13.722;2022-09-30T03:44:45;8.70;99.90
48264;DHT22;34086;51.076;13.722;2022-09-30T03:46:00;8.70;99.90
48264;DHT22;34086;51.076;13.722;2022-09-30T03:47:08;8.70;99.90
48264;DHT22;34086;51.076;13.722;2022-09-30T03:48:10;8.70;99.90
48264;DHT22;34086;51.076;13.722;2022-09-30T03:49:16;8.70;99.90
48264;DHT22;34086;51.076;13.722;2022-09-30T03:50:20;8.70;99.90
48264;DHT22;34086;51.076;13.722;2022-09-30T03:51:22;8.70;99.90
48264;DHT22;34086;51.076;13.722;2022-09-30T03:52:25;8.70;99.90
48264;DHT22;34086;51.076;13.722;2022-09-30T03:53:27;8.70;99.90
48264;DHT22;34086;51.076;13.722;2022-09-30T03:54:27;8.70;99.90
48264;DHT22;34086;51.076;13.722;2022-09-30T03:55:29;8.70;99.90
48264;DHT22;34086;51.076;13.722;2022-09-30T03:56:32;8.70;99.90
48264;DHT22;34086;51.076;13.722;2022-09-30T03:57:33;8.70;99.90
48264;DHT22;34086;51.076;13.722;2022-09-30T03:58:34;8.70;99.90
48264;DHT22;34086;51.076;13.722;2022-09-30T03:59:36;8.70;99.90
48264;DHT22;34086;51.076;13.722;2022-09-30T04:00:37;8.70;99.90
48264;DHT22;34086;51.076;13.722;2022-09-30T04:01:38;8.70;99.90
48264;DHT22;34086;51.076;13.722;2022-09-30T04:02:39;8.70;99.90
48264;DHT22;34086;51.076;13.722;2022-09-30T04:03:39;8.70;99.90
48264;DHT22;34086;51.076;13.722;2022-09-30T04:04:41;8.70;99.90
48264;DHT22;34086;51.076;13.722;2022-09-30T04:05:42;8.70;99.90
48264;DHT22;34086;51.076;13.722;2022-09-30T04:06:42;8.70;99.90
48264;DHT22;34086;51.076;13.722;2022-09-30T04:07:43;8.70;99.90
48264;DHT22;34086;51.076;13.722;2022-09-30T04:08:45;8.70;99.90
48264;DHT22;34086;51.076;13.722;2022-09-30T04:09:46;8.70;99.90
48264;DHT22;34086;51.076;13.722;2022-09-30T04:10:46;8.60;99.90
48264;DHT22;34086;51.076;13.722;2022-09-30T04:11:47;8.70;99.90
48264;DHT22;34086;51.076;13.722;2022-09-30T04:12:47;8.70;99.90
48264;DHT22;34086;51.076;13.722;2022-09-30T04:13:48;8.70;99.90
48264;DHT22;34086;51.076;13.722;2022-09-30T04:14:48;8.70;99.90
48264;DHT22;34086;51.076;13.722;2022-09-30T04:15:54;8.70;99.90
48264;DHT22;34086;51.076;13.722;2022-09-30T04:16:54;8.70;99.90
48264;DHT22;34086;51.076;13.722;2022-09-30T04:17:55;8.70;99.90
48264;DHT22;34086;51.076;13.722;2022-09-30T04:18:55;8.60;99.90
48264;DHT22;34086;51.076;13.722;2022-09-30T04:19:56;8.60;99.90
48264;DHT22;34086;51.076;13.722;2022-09-30T04:20:57;8.60;99.90
48264;DHT22;34086;51.076;13.722;2022-09-30T04:21:58;8.60;99.90
48264;DHT22;34086;51.076;13.722;2022-09-30T04:22:59;8.60;99.90
48264;DHT22;34086;51.076;13.722;2022-09-30T04:24:00;8.60;99.90
48264;DHT22;34086;51.076;13.722;2022-09-30T04:25:01;8.50;99.90
48264;DHT22;34086;51.076;13.722;2022-09-30T04:26:03;8.60;99.90
48264;DHT22;34086;51.076;13.722;2022-09-30T04:27:04;8.60;99.90
48264;DHT22;34086;51.076;13.722;2022-09-30T04:28:05;8.60;99.90
48264;DHT22;34086;51.076;13.722;2022-09-30T04:29:06;8.60;99.90
48264;DHT22;34086;51.076;13.722;2022-09-30T04:30:06;8.60;99.90
48264;DHT22;34086;51.076;13.722;2022-09-30T04:31:09;8.60;99.90
48264;DHT22;34086;51.076;13.722;2022-09-30T04:32:11;8.60;99.90
48264;DHT22;34086;51.076;13.722;2022-09-30T04:33:11;8.50;99.90
48264;DHT22;34086;51.076;13.722;2022-09-30T04:34:12;8.60;99.90
48264;DHT22;34086;51.076;13.722;2022-09-30T04:35:13;8.60;99.90
48264;DHT22;34086;51.076;13.722;2022-09-30T04:36:14;8.60;99.90
48264;DHT22;34086;51.076;13.722;2022-09-30T04:37:15;8.60;99.90
48264;DHT22;34086;51.076;13.722;2022-09-30T04:38:15;8.50;99.90
48264;DHT22;34086;51.076;13.722;2022-09-30T04:39:16;8.50;99.90
48264;DHT22;34086;51.076;13.722;2022-09-30T04:40:17;8.50;99.90
48264;DHT22;34086;51.076;13.722;2022-09-30T04:41:17;8.50;99.90
48264;DHT22;34086;51.076;13.722;2022-09-30T04:42:18;8.40;99.90
48264;DHT22;34086;51.076;13.722;2022-09-30T04:43:19;8.40;99.90
48264;DHT22;34086;51.076;13.722;2022-09-30T04:44:21;8.40;99.90
48264;DHT22;34086;51.076;13.722;2022-09-30T04:45:22;8.30;99.90
48264;DHT22;34086;51.076;13.722;2022-09-30T04:46:24;8.30;99.90
48264;DHT22;34086;51.076;13.722;2022-09-30T04:47:25;8.20;99.90
48264;DHT22;34086;51.076;13.722;2022-09-30T04:48:26;8.20;99.90
48264;DHT22;34086;51.076;13.722;2022-09-30T04:49:28;8.20;99.90
48264;DHT22;34086;51.076;13.722;2022-09-30T04:50:29;8.20;99.90
48264;DHT22;34086;51.076;13.722;2022-09-30T04:51:30;8.20;99.90
48264;DHT22;34086;51.076;13.722;2022-09-30T04:52:31;8.10;99.90
48264;DHT22;34086;51.076;13.722;2022-09-30T04:53:31;8.10;99.90
48264;DHT22;34086;51.076;13.722;2022-09-30T04:54:33;8.10;99.90
48264;DHT22;34086;51.076;13.722;2022-09-30T04:55:33;8.10;99.90
48264;DHT22;34086;51.076;13.722;2022-09-30T04:56:34;8.00;99.90
48264;DHT22;34086;51.076;13.722;2022-09-30T04:57:35;8.00;99.90
48264;DHT22;34086;51.076;13.722;2022-09-30T04:58:36;8.00;99.90
48264;DHT22;34086;51.076;13.722;2022-09-30T04:59:37;7.90;99.90
48264;DHT22;34086;51.076;13.722;2022-09-30T05:00:37;7.90;99.90
48264;DHT22;34086;51.076;13.722;2022-09-30T05:01:38;7.80;99.90
48264;DHT22;34086;51.076;13.722;2022-09-30T05:02:42;7.90;99.90
48264;DHT22;34086;51.076;13.722;2022-09-30T05:03:44;7.80;99.90
48264;DHT22;34086;51.076;13.722;2022-09-30T05:04:46;7.80;99.90
48264;DHT22;34086;51.076;13.722;2022-09-30T05:05:46;7.80;99.90
48264;DHT22;34086;51.076;13.722;2022-09-30T05:06:48;7.70;99.90
48264;DHT22;34086;51.076;13.722;2022-09-30T05:07:49;7.70;99.90
48264;DHT22;34086;51.076;13.722;2022-09-30T05:08:56;7.70;99.90
48264;DHT22;34086;51.076;13.722;2022-09-30T05:09:57;7.70;99.90
48264;DHT22;34086;51.076;13.722;2022-09-30T05:11:00;7.70;99.90
48264;DHT22;34086;51.076;13.722;2022-09-30T05:12:01;7.70;99.90
48264;DHT22;34086;51.076;13.722;2022-09-30T05:13:02;7.70;99.90
48264;DHT22;34086;51.076;13.722;2022-09-30T05:14:06;7.70;99.90
48264;DHT22;34086;51.076;13.722;2022-09-30T05:15:09;7.70;99.90
48264;DHT22;34086;51.076;13.722;2022-09-30T05:16:10;7.60;99.90
48264;DHT22;34086;51.076;13.722;2022-09-30T05:17:14;7.70;99.90
48264;DHT22;34086;51.076;13.722;2022-09-30T05:18:15;7.70;99.90
48264;DHT22;34086;51.076;13.722;2022-09-30T05:19:16;7.70;99.90
48264;DHT22;34086;51.076;13.722;2022-09-30T05:20:16;7.70;99.90
48264;DHT22;34086;51.076;13.722;2022-09-30T05:21:18;7.70;99.90
48264;DHT22;34086;51.076;13.722;2022-09-30T05:22:20;7.70;99.90
48264;DHT22;34086;51.076;13.722;2022-09-30T05:23:23;7.70;99.90
48264;DHT22;34086;51.076;13.722;2022-09-30T05:24:24;7.70;99.90
48264;DHT22;34086;51.076;13.722;2022-09-30T05:25:30;7.70;99.90
48264;DHT22;34086;51.076;13.722;2022-09-30T05:26:31;7.70;99.90
48264;DHT22;34086;51.076;13.722;2022-09-30T05:27:32;7.70;99.90
48264;DHT22;34086;51.076;13.722;2022-09-30T05:28:35;7.70;99.90
48264;DHT22;34086;51.076;13.722;2022-09-30T05:29:36;7.70;99.90
48264;DHT22;34086;51.076;13.722;2022-09-30T05:30:37;7.60;99.90
48264;DHT22;34086;51.076;13.722;2022-09-30T05:31:38;7.60;99.90
48264;DHT22;34086;51.076;13.722;2022-09-30T05:32:38;7.70;99.90
48264;DHT22;34086;51.076;13.722;2022-09-30T05:33:42;7.60;99.90
48264;DHT22;34086;51.076;13.722;2022-09-30T05:34:44;7.60;99.90
48264;DHT22;34086;51.076;13.722;2022-09-30T05:35:45;7.60;99.90
48264;DHT22;34086;51.076;13.722;2022-09-30T05:36:45;7.60;99.90
48264;DHT22;34086;51.076;13.722;2022-09-30T05:37:46;7.70;99.90
48264;DHT22;34086;51.076;13.722;2022-09-30T05:38:49;7.70;99.90
48264;DHT22;34086;51.076;13.722;2022-09-30T05:39:51;7.70;99.90
48264;DHT22;34086;51.076;13.722;2022-09-30T05:40:51;7.70;99.90
48264;DHT22;34086;51.076;13.722;2022-09-30T05:41:56;7.70;99.90
48264;DHT22;34086;51.076;13.722;2022-09-30T05:42:58;7.70;99.90
48264;DHT22;34086;51.076;13.722;2022-09-30T05:43:59;7.80;99.90
48264;DHT22;34086;51.076;13.722;2022-09-30T05:45:02;7.80;99.90
48264;DHT22;34086;51.076;13.722;2022-09-30T05:46:03;7.80;99.90
48264;DHT22;34086;51.076;13.722;2022-09-30T05:47:03;7.80;99.90
48264;DHT22;34086;51.076;13.722;2022-09-30T05:48:05;7.80;99.90
48264;DHT22;34086;51.076;13.722;2022-09-30T05:49:06;7.80;99.90
48264;DHT22;34086;51.076;13.722;2022-09-30T05:50:10;7.80;99.90
48264;DHT22;34086;51.076;13.722;2022-09-30T05:51:11;7.90;99.90
48264;DHT22;34086;51.076;13.722;2022-09-30T05:52:12;7.90;99.90
48264;DHT22;34086;51.076;13.722;2022-09-30T05:53:14;7.90;99.90
48264;DHT22;34086;51.076;13.722;2022-09-30T05:54:15;8.00;99.90
48264;DHT22;34086;51.076;13.722;2022-09-30T05:55:16;8.00;99.90
48264;DHT22;34086;51.076;13.722;2022-09-30T05:56:17;8.00;99.90
48264;DHT22;34086;51.076;13.722;2022-09-30T05:57:20;8.00;99.90
48264;DHT22;34086;51.076;13.722;2022-09-30T05:58:21;8.10;99.90
48264;DHT22;34086;51.076;13.722;2022-09-30T05:59:22;8.10;99.90
48264;DHT22;34086;51.076;13.722;2022-09-30T06:00:22;8.20;99.90
48264;DHT22;34086;51.076;13.722;2022-09-30T06:01:26;8.20;99.90
48264;DHT22;34086;51.076;13.722;2022-09-30T06:02:26;8.20;99.90
48264;DHT22;34086;51.076;13.722;2022-09-30T06:03:27;8.20;99.90
48264;DHT22;34086;51.076;13.722;2022-09-30T06:04:28;8.20;99.90
48264;DHT22;34086;51.076;13.722;2022-09-30T06:05:28;8.30;99.90
48264;DHT22;34086;51.076;13.722;2022-09-30T06:06:29;8.30;99.90
48264;DHT22;34086;51.076;13.722;2022-09-30T06:07:32;8.30;99.90
48264;DHT22;34086;51.076;13.722;2022-09-30T06:08:34;8.30;99.90
48264;DHT22;34086;51.076;13.722;2022-09-30T06:09:35;8.40;99.90
48264;DHT22;34086;51.076;13.722;2022-09-30T06:10:35;8.40;99.90
48264;DHT22;34086;51.076;13.722;2022-09-30T06:11:36;8.50;99.90
48264;DHT22;34086;51.076;13.722;2022-09-30T06:12:37;8.50;99.90
48264;DHT22;34086;51.076;13.722;2022-09-30T06:13:40;8.60;99.90
48264;DHT22;34086;51.076;13.722;2022-09-30T06:14:41;8.60;99.90
48264;DHT22;34086;51.076;13.722;2022-09-30T06:15:43;8.70;99.90
48264;DHT22;34086;51.076;13.722;2022-09-30T06:16:44;8.70;99.90
48264;DHT22;34086;51.076;13.722;2022-09-30T06:17:44;8.70;99.90
48264;DHT22;34086;51.076;13.722;2022-09-30T06:18:50;8.70;99.90
48264;DHT22;34086;51.076;13.722;2022-09-30T06:19:54;8.80;99.90
48264;DHT22;34086;51.076;13.722;2022-09-30T06:20:59;8.80;99.90
48264;DHT22;34086;51.076;13.722;2022-09-30T06:22:01;8.80;99.90
48264;DHT22;34086;51.076;13.722;2022-09-30T06:23:02;8.80;99.90
48264;DHT22;34086;51.076;13.722;2022-09-30T06:24:03;8.80;99.90
48264;DHT22;34086;51.076;13.722;2022-09-30T06:25:12;8.80;99.90
48264;DHT22;34086;51.076;13.722;2022-09-30T06:26:14;8.80;99.90
48264;DHT22;34086;51.076;13.722;2022-09-30T06:27:15;8.80;99.90
48264;DHT22;34086;51.076;13.722;2022-09-30T06:28:15;8.80;99.90
48264;DHT22;34086;51.076;13.722;2022-09-30T06:29:16;8.80;99.90
48264;DHT22;34086;51.076;13.722;2022-09-30T06:30:19;8.90;99.90
48264;DHT22;34086;51.076;13.722;2022-09-30T06:31:19;8.90;99.90
48264;DHT22;34086;51.076;13.722;2022-09-30T06:32:20;8.90;99.90
48264;DHT22;34086;51.076;13.722;2022-09-30T06:33:21;9.00;99.90
48264;DHT22;34086;51.076;13.722;2022-09-30T06:34:21;9.00;99.90
48264;DHT22;34086;51.076;13.722;2022-09-30T06:35:23;9.10;99.90
48264;DHT22;34086;51.076;13.722;2022-09-30T06:36:25;9.10;99.90
48264;DHT22;34086;51.076;13.722;2022-09-30T06:37:28;9.20;99.90
48264;DHT22;34086;51.076;13.722;2022-09-30T06:38:31;9.20;99.90
48264;DHT22;34086;51.076;13.722;2022-09-30T06:39:31;9.30;99.90
48264;DHT22;34086;51.076;13.722;2022-09-30T06:40:32;9.30;99.90
48264;DHT22;34086;51.076;13.722;2022-09-30T06:41:33;9.40;99.90
48264;DHT22;34086;51.076;13.722;2022-09-30T06:42:37;9.40;99.90
48264;DHT22;34086;51.076;13.722;2022-09-30T06:43:38;9.40;99.90
48264;DHT22;34086;51.076;13.722;2022-09-30T06:44:39;9.50;99.90
48264;DHT22;34086;51.076;13.722;2022-09-30T06:45:39;9.50;99.90
48264;DHT22;34086;51.076;13.722;2022-09-30T06:46:40;9.60;99.90
48264;DHT22;34086;51.076;13.722;2022-09-30T06:47:41;9.60;99.90
48264;DHT22;34086;51.076;13.722;2022-09-30T06:48:41;9.60;99.90
48264;DHT22;34086;51.076;13.722;2022-09-30T06:49:42;9.70;99.90
48264;DHT22;34086;51.076;13.722;2022-09-30T06:50:43;9.70;99.90
48264;DHT22;34086;51.076;13.722;2022-09-30T06:51:43;9.80;99.90
48264;DHT22;34086;51.076;13.722;2022-09-30T06:52:44;9.80;99.90
48264;DHT22;34086;51.076;13.722;2022-09-30T06:53:48;9.90;99.90
48264;DHT22;34086;51.076;13.722;2022-09-30T06:54:50;9.90;99.90
48264;DHT22;34086;51.076;13.722;2022-09-30T06:55:55;10.00;99.90
48264;DHT22;34086;51.076;13.722;2022-09-30T06:56:56;10.00;99.90
48264;DHT22;34086;51.076;13.722;2022-09-30T06:57:59;10.00;99.90
48264;DHT22;34086;51.076;13.722;2022-09-30T06:58:59;10.00;99.90
48264;DHT22;34086;51.076;13.722;2022-09-30T07:00:01;10.10;99.90
48264;DHT22;34086;51.076;13.722;2022-09-30T07:01:04;10.10;99.90
48264;DHT22;34086;51.076;13.722;2022-09-30T07:02:05;10.20;99.90
48264;DHT22;34086;51.076;13.722;2022-09-30T07:03:05;10.20;99.90
48264;DHT22;34086;51.076;13.722;2022-09-30T07:04:10;10.20;99.90
48264;DHT22;34086;51.076;13.722;2022-09-30T07:05:10;10.30;99.90
48264;DHT22;34086;51.076;13.722;2022-09-30T07:06:13;10.30;99.90
48264;DHT22;34086;51.076;13.722;2022-09-30T07:07:14;10.30;99.90
48264;DHT22;34086;51.076;13.722;2022-09-30T07:08:15;10.40;99.90
48264;DHT22;34086;51.076;13.722;2022-09-30T07:09:15;10.40;99.90
48264;DHT22;34086;51.076;13.722;2022-09-30T07:10:17;10.40;99.90
48264;DHT22;34086;51.076;13.722;2022-09-30T07:11:17;10.50;99.90
48264;DHT22;34086;51.076;13.722;2022-09-30T07:12:18;10.50;99.90
48264;DHT22;34086;51.076;13.722;2022-09-30T07:13:19;10.50;99.90
48264;DHT22;34086;51.076;13.722;2022-09-30T07:14:19;10.60;99.90
48264;DHT22;34086;51.076;13.722;2022-09-30T07:15:22;10.60;99.90
48264;DHT22;34086;51.076;13.722;2022-09-30T07:16:23;10.70;99.90
48264;DHT22;34086;51.076;13.722;2022-09-30T07:17:27;10.70;99.90
48264;DHT22;34086;51.076;13.722;2022-09-30T07:18:28;10.70;99.90
48264;DHT22;34086;51.076;13.722;2022-09-30T07:19:29;10.80;99.90
48264;DHT22;34086;51.076;13.722;2022-09-30T07:20:29;10.80;99.90
48264;DHT22;34086;51.076;13.722;2022-09-30T07:21:30;10.90;99.90
48264;DHT22;34086;51.076;13.722;2022-09-30T07:22:31;10.90;99.90
48264;DHT22;34086;51.076;13.722;2022-09-30T07:23:34;11.00;99.90
48264;DHT22;34086;51.076;13.722;2022-09-30T07:24:34;11.00;99.90
48264;DHT22;34086;51.076;13.722;2022-09-30T07:25:35;11.00;99.90
48264;DHT22;34086;51.076;13.722;2022-09-30T07:26:36;11.10;99.90
48264;DHT22;34086;51.076;13.722;2022-09-30T07:27:37;11.10;99.90
48264;DHT22;34086;51.076;13.722;2022-09-30T07:28:37;11.10;99.90
48264;DHT22;34086;51.076;13.722;2022-09-30T07:29:39;11.10;99.90
48264;DHT22;34086;51.076;13.722;2022-09-30T07:30:43;11.20;99.90
48264;DHT22;34086;51.076;13.722;2022-09-30T07:31:44;11.20;99.90
48264;DHT22;34086;51.076;13.722;2022-09-30T07:32:45;11.30;99.90
48264;DHT22;34086;51.076;13.722;2022-09-30T07:33:47;11.40;99.90
48264;DHT22;34086;51.076;13.722;2022-09-30T07:34:50;11.40;99.90
48264;DHT22;34086;51.076;13.722;2022-09-30T07:35:55;11.50;99.90
48264;DHT22;34086;51.076;13.722;2022-09-30T07:36:56;11.50;99.90
48264;DHT22;34086;51.076;13.722;2022-09-30T07:37:57;11.50;99.90
48264;DHT22;34086;51.076;13.722;2022-09-30T07:39:00;11.60;99.90